KOGS

Ogdensburg International Airport

Ogdensburg, New York, USA
METAR KOGS 091935Z AUTO 24012G17KT 10SM OVC029 01/M03 A3015 RMK AO2 T00101033
Observed Flight Rules
Dec-9 @ 19:35 UTC (11 hours ago) Marginal Visual Flight Rules
Wind Visibility Clouds
240° at 12 knots
 Gusting to 17 knots
10 miles
  • Overcast at 2,900' AGL
Temperatures Readings
Current 1°C / 34°F
Dewpoint -3°C / 27°F
Humidity 75%
Altimeter 30.15" Hg
Pressure 1021 hPa
Elevation 91
METAR KOGS 091935Z AUTO 24012G17KT 10SM OVC029 01/M03 A3015 RMK AO2 T00101033
Observed Flight Rules
Dec-9 @ 19:35 UTC
(11 hours ago)
MVFR
Wind Visibility
240° at 12 knots
 Gusting to 17 knots
10 miles
Clouds
  • Overcast at 2,900' AGL
Temperature Dewpoint
1°C / 34°F -3°C / 27°F
Humidity Altimeter Pressure
75% 30.15" Hg 1021 hPa